createdAt,value
2019-05-19T00:00:11.936Z,35.33
2019-05-19T00:02:41.617Z,38.90
2019-05-19T00:05:13.011Z,35.50
2019-05-19T00:07:42.509Z,35.40
2019-05-19T00:10:12.128Z,35.40
2019-05-19T00:12:41.605Z,33.47
2019-05-19T00:15:11.141Z,32.30
2019-05-19T00:17:40.613Z,34.40
2019-05-19T00:20:10.015Z,34.43
2019-05-19T00:22:39.429Z,28.20
2019-05-19T00:25:09.308Z,29.80
2019-05-19T00:27:38.865Z,30.10
2019-05-19T00:30:08.549Z,28.70
2019-05-19T00:32:38.026Z,26.37
2019-05-19T00:35:07.602Z,25.73
2019-05-19T00:37:37.088Z,31.93
2019-05-19T00:40:06.757Z,26.37
2019-05-19T00:42:36.333Z,25.60
2019-05-19T00:45:06.523Z,27.53
2019-05-19T00:47:36.080Z,29.00
2019-05-19T00:50:06.383Z,31.90
2019-05-19T00:52:35.984Z,27.67
2019-05-19T00:55:05.839Z,27.50
2019-05-19T00:57:36.317Z,21.97
2019-05-19T01:00:07.576Z,24.00
2019-05-19T01:02:37.354Z,25.07
2019-05-19T01:05:07.447Z,22.73
2019-05-19T01:07:38.793Z,26.20
2019-05-19T01:10:08.288Z,26.90
2019-05-19T01:12:37.746Z,23.33
2019-05-19T01:15:08.864Z,33.00
2019-05-19T01:17:38.411Z,25.77
2019-05-19T01:20:07.998Z,27.17
2019-05-19T01:22:38.677Z,24.70
2019-05-19T01:25:08.162Z,24.53
2019-05-19T01:27:37.645Z,27.37
2019-05-19T01:30:08.609Z,31.67
2019-05-19T01:32:38.238Z,29.33
2019-05-19T01:35:08.311Z,27.83
2019-05-19T01:37:37.791Z,31.80
2019-05-19T01:40:07.390Z,25.97
2019-05-19T01:42:36.940Z,30.83
2019-05-19T01:45:07.200Z,31.53
2019-05-19T01:47:36.700Z,31.27
2019-05-19T01:50:17.783Z,31.77
2019-05-19T01:52:38.783Z,37.77
2019-05-19T01:55:08.451Z,29.47
2019-05-19T01:57:37.914Z,29.43
2019-05-19T02:00:08.033Z,31.30
2019-05-19T02:02:37.542Z,30.80
2019-05-19T02:05:07.606Z,30.47
2019-05-19T02:07:38.191Z,28.70
2019-05-19T02:10:08.848Z,25.40
2019-05-19T02:12:39.217Z,27.43
2019-05-19T02:15:09.750Z,25.43
2019-05-19T02:17:39.342Z,27.97
2019-05-19T02:20:09.087Z,25.63
2019-05-19T02:22:39.786Z,24.13
2019-05-19T02:25:09.435Z,27.67
2019-05-19T02:27:39.706Z,29.73
2019-05-19T02:30:09.648Z,26.00
2019-05-19T02:32:39.131Z,28.40
2019-05-19T02:35:08.891Z,24.77
2019-05-19T02:37:38.434Z,24.50
2019-05-19T02:40:08.075Z,26.23
2019-05-19T02:42:39.053Z,22.03
2019-05-19T02:45:08.686Z,22.07
2019-05-19T02:47:39.738Z,25.83
2019-05-19T02:50:09.403Z,22.80
2019-05-19T02:52:41.168Z,24.20
2019-05-19T02:55:10.726Z,21.73
2019-05-19T02:57:41.583Z,25.57
2019-05-19T03:00:12.607Z,20.57
2019-05-19T03:02:42.000Z,18.57
2019-05-19T03:05:11.725Z,18.93
2019-05-19T03:07:41.135Z,19.83
2019-05-19T03:10:10.795Z,16.93
2019-05-19T03:12:40.315Z,21.93
2019-05-19T03:15:09.831Z,17.80
2019-05-19T03:17:39.306Z,19.13
2019-05-19T03:20:08.862Z,22.17
2019-05-19T03:22:39.611Z,18.83
2019-05-19T03:25:09.172Z,17.67
2019-05-19T03:27:38.578Z,18.63
2019-05-19T03:30:24.914Z,17.50
2019-05-19T03:33:12.581Z,23.50
2019-05-19T03:35:42.198Z,20.70
2019-05-19T03:38:11.651Z,22.60
2019-05-19T03:40:41.166Z,19.00
2019-05-19T03:43:10.640Z,17.37
2019-05-19T03:45:40.284Z,20.70
2019-05-19T03:48:09.812Z,19.63
2019-05-19T03:50:39.363Z,18.07
2019-05-19T03:53:08.898Z,23.67
2019-05-19T03:55:38.391Z,17.13
2019-05-19T03:58:07.929Z,14.73
2019-05-19T04:00:37.436Z,17.90
2019-05-19T04:03:06.904Z,17.73
2019-05-19T04:05:36.698Z,16.27
2019-05-19T04:08:06.259Z,17.17
2019-05-19T04:10:35.710Z,14.80
2019-05-19T04:13:05.156Z,21.63
2019-05-19T04:15:34.724Z,15.90
2019-05-19T04:18:04.279Z,16.87
2019-05-19T04:20:33.768Z,18.73
2019-05-19T04:23:03.284Z,16.77
2019-05-19T04:25:32.705Z,13.57
2019-05-19T04:28:02.201Z,17.07
2019-05-19T04:30:31.688Z,16.23
2019-05-19T04:33:01.078Z,18.83
2019-05-19T04:35:30.490Z,21.77
2019-05-19T04:37:59.995Z,17.10
2019-05-19T04:40:29.397Z,16.27
2019-05-19T04:42:58.796Z,18.67
2019-05-19T04:45:28.320Z,18.53
2019-05-19T04:47:57.810Z,15.00
2019-05-19T04:50:27.294Z,16.77
2019-05-19T04:52:56.811Z,21.40
2019-05-19T04:55:26.294Z,16.40
2019-05-19T04:57:55.769Z,17.90
2019-05-19T05:00:25.192Z,19.40
2019-05-19T05:02:54.699Z,17.47
2019-05-19T05:05:24.218Z,14.33
2019-05-19T05:07:53.694Z,15.47
2019-05-19T05:10:23.159Z,15.87
2019-05-19T05:12:52.738Z,15.37
2019-05-19T05:15:22.194Z,16.53
2019-05-19T05:17:51.604Z,16.43
2019-05-19T05:20:21.109Z,13.30
2019-05-19T05:22:50.511Z,14.47
2019-05-19T05:25:19.990Z,18.67
2019-05-19T05:27:49.470Z,15.60
2019-05-19T05:30:19.832Z,14.47
2019-05-19T05:32:49.280Z,14.70
2019-05-19T05:35:18.700Z,14.50
2019-05-19T05:37:48.326Z,14.77
2019-05-19T05:40:17.881Z,15.97
2019-05-19T05:42:47.309Z,15.80
2019-05-19T05:45:16.788Z,14.03
2019-05-19T05:47:46.434Z,17.17
2019-05-19T05:50:15.938Z,20.97
2019-05-19T05:52:45.447Z,14.67
2019-05-19T05:55:15.003Z,15.63
2019-05-19T05:57:44.490Z,18.80
2019-05-19T06:00:15.813Z,22.17
2019-05-19T06:02:45.240Z,17.30
2019-05-19T06:05:14.782Z,20.70
2019-05-19T06:07:44.300Z,18.97
2019-05-19T06:10:14.552Z,23.87
2019-05-19T06:12:44.004Z,18.73
2019-05-19T06:15:13.556Z,21.93
2019-05-19T06:17:43.189Z,22.53
2019-05-19T06:20:12.699Z,22.10
2019-05-19T06:22:55.195Z,23.20
2019-05-19T06:25:13.365Z,22.07
2019-05-19T06:27:42.825Z,20.33
2019-05-19T06:30:12.509Z,19.67
2019-05-19T06:32:43.614Z,23.47
2019-05-19T06:35:13.248Z,25.23
2019-05-19T06:37:42.720Z,20.67
2019-05-19T06:40:12.736Z,23.67
2019-05-19T06:42:42.217Z,22.33
2019-05-19T06:45:11.696Z,25.77
2019-05-19T06:47:41.256Z,21.03
2019-05-19T06:50:12.190Z,21.00
2019-05-19T06:52:41.662Z,21.13
2019-05-19T06:55:11.601Z,21.83
2019-05-19T06:57:41.041Z,23.97
2019-05-19T07:00:11.067Z,24.50
2019-05-19T07:02:40.565Z,25.37
2019-05-19T07:05:10.180Z,29.67
2019-05-19T07:07:39.581Z,26.90
2019-05-19T07:10:09.059Z,23.40
2019-05-19T07:12:40.267Z,21.50
2019-05-19T07:15:10.452Z,24.83
2019-05-19T07:17:39.869Z,23.47
2019-05-19T07:20:09.571Z,25.13
2019-05-19T07:22:39.094Z,23.73
2019-05-19T07:25:08.662Z,20.80
2019-05-19T07:27:38.139Z,23.60
2019-05-19T07:30:07.960Z,23.18
2019-05-19T07:32:37.387Z,21.60
2019-05-19T07:35:07.603Z,24.70
2019-05-19T07:37:37.091Z,22.70
2019-05-19T07:40:06.663Z,23.30
2019-05-19T07:42:36.198Z,24.50
2019-05-19T07:45:06.242Z,25.60
2019-05-19T07:47:35.734Z,22.40
2019-05-19T07:50:06.118Z,22.33
2019-05-19T07:52:35.511Z,26.67
2019-05-19T07:55:06.486Z,26.07
2019-05-19T07:57:35.969Z,27.23
2019-05-19T08:00:08.878Z,25.80
2019-05-19T08:02:38.668Z,27.87
2019-05-19T08:05:08.196Z,26.23
2019-05-19T08:07:37.702Z,24.43
2019-05-19T08:10:07.237Z,29.77
2019-05-19T08:12:36.735Z,28.57
2019-05-19T08:15:06.764Z,29.10
2019-05-19T08:17:36.242Z,25.80
2019-05-19T08:20:06.752Z,24.67
2019-05-19T08:22:36.251Z,27.63
2019-05-19T08:25:07.209Z,27.00
2019-05-19T08:27:36.754Z,29.03
2019-05-19T08:30:07.688Z,28.17
2019-05-19T08:32:37.113Z,27.50
2019-05-19T08:35:07.315Z,23.67
2019-05-19T08:37:37.785Z,27.57
2019-05-19T08:40:07.506Z,24.80
2019-05-19T08:42:37.063Z,23.97
2019-05-19T08:45:07.144Z,28.87
2019-05-19T08:47:36.711Z,27.10
2019-05-19T08:50:06.698Z,29.57
2019-05-19T08:52:36.218Z,28.57
2019-05-19T08:55:05.865Z,29.83
2019-05-19T08:57:35.294Z,28.80
2019-05-19T09:00:06.888Z,31.10
2019-05-19T09:02:36.478Z,27.97
2019-05-19T09:05:06.191Z,28.23
2019-05-19T09:07:35.692Z,30.57
2019-05-19T09:10:07.112Z,25.27
2019-05-19T09:12:38.379Z,26.43
2019-05-19T09:15:09.181Z,31.30
2019-05-19T09:17:38.715Z,29.97
2019-05-19T09:20:08.389Z,30.00
2019-05-19T09:22:37.892Z,26.27
2019-05-19T09:25:08.046Z,26.07
2019-05-19T09:27:37.531Z,24.67
2019-05-19T09:30:08.177Z,26.17
2019-05-19T09:32:37.746Z,28.37
2019-05-19T09:35:07.686Z,22.63
2019-05-19T09:37:37.201Z,25.27
2019-05-19T09:40:08.544Z,23.10
2019-05-19T09:42:37.980Z,26.47
2019-05-19T09:45:07.926Z,18.23
2019-05-19T09:47:37.862Z,20.53
2019-05-19T09:50:07.851Z,20.40
2019-05-19T09:52:37.507Z,18.80
2019-05-19T09:55:07.419Z,16.07
2019-05-19T09:57:37.159Z,18.70
2019-05-19T10:00:07.187Z,16.23
2019-05-19T10:02:36.920Z,18.00
2019-05-19T10:05:07.502Z,17.17
2019-05-19T10:07:36.989Z,16.20
2019-05-19T10:10:08.027Z,20.00
2019-05-19T10:12:37.526Z,17.33
2019-05-19T10:15:07.192Z,15.63
2019-05-19T10:17:36.752Z,14.60
2019-05-19T10:20:07.598Z,17.43
2019-05-19T10:22:38.868Z,18.10
2019-05-19T10:25:21.793Z,19.70
2019-05-19T10:27:40.941Z,24.27
2019-05-19T10:30:11.137Z,20.57
2019-05-19T10:32:42.217Z,19.53
2019-05-19T10:35:11.768Z,18.17
2019-05-19T10:37:41.271Z,16.43
2019-05-19T10:40:11.331Z,23.97
2019-05-19T10:42:40.774Z,22.57
2019-05-19T10:45:11.513Z,21.47
2019-05-19T10:47:40.988Z,19.90
2019-05-19T10:50:10.492Z,19.53
2019-05-19T10:52:40.052Z,18.45
2019-05-19T10:55:10.634Z,19.23
2019-05-19T10:57:40.143Z,16.30
2019-05-19T11:00:09.637Z,17.32
2019-05-19T11:02:39.160Z,18.12
2019-05-19T11:05:11.172Z,16.82
2019-05-19T11:07:39.947Z,15.83
2019-05-19T11:10:09.651Z,10.90
2019-05-19T11:12:39.958Z,10.17
2019-05-19T11:15:09.568Z,8.53
2019-05-19T11:17:39.102Z,8.13
2019-05-19T11:20:08.763Z,11.00
2019-05-19T11:22:38.264Z,8.63
2019-05-19T11:25:07.743Z,8.93
2019-05-19T11:27:37.263Z,6.60
2019-05-19T11:30:06.924Z,6.63
2019-05-19T11:32:36.382Z,7.67
2019-05-19T11:35:07.132Z,5.70
2019-05-19T11:37:36.582Z,5.27
2019-05-19T11:40:06.055Z,6.73
2019-05-19T11:42:35.641Z,5.53
2019-05-19T11:45:06.615Z,5.53
2019-05-19T11:47:36.247Z,4.60
2019-05-19T11:50:06.125Z,4.57
2019-05-19T11:52:35.596Z,5.17
2019-05-19T11:55:05.997Z,4.60
2019-05-19T11:57:35.466Z,5.13
2019-05-19T12:00:06.082Z,4.80
2019-05-19T12:02:35.720Z,4.63
2019-05-19T12:05:05.291Z,5.53
2019-05-19T12:07:34.872Z,4.50
2019-05-19T12:10:07.248Z,4.73
2019-05-19T12:12:36.760Z,4.83
2019-05-19T12:15:06.706Z,4.47
2019-05-19T12:17:37.635Z,5.00
2019-05-19T12:20:07.638Z,4.43
2019-05-19T12:22:37.313Z,5.80
2019-05-19T12:25:07.978Z,5.13
2019-05-19T12:27:37.560Z,5.07
2019-05-19T12:30:07.673Z,5.00
2019-05-19T12:32:37.137Z,5.30
2019-05-19T12:35:06.611Z,5.90
2019-05-19T12:37:36.104Z,5.40
2019-05-19T12:40:05.861Z,6.37
2019-05-19T12:42:35.812Z,5.93
2019-05-19T12:45:06.883Z,5.33
2019-05-19T12:47:36.530Z,5.00
2019-05-19T12:50:06.527Z,6.00
2019-05-19T12:52:36.082Z,6.50
2019-05-19T12:55:05.759Z,6.80
2019-05-19T12:57:35.218Z,6.73
2019-05-19T13:00:05.102Z,6.07
2019-05-19T13:02:37.618Z,8.73
2019-05-19T13:05:07.026Z,10.20
2019-05-19T13:07:36.546Z,9.30
2019-05-19T13:10:09.015Z,6.93
2019-05-19T13:12:38.495Z,6.87
2019-05-19T13:15:08.057Z,6.63
2019-05-19T13:17:37.459Z,6.43
2019-05-19T13:20:08.026Z,6.90
2019-05-19T13:22:37.494Z,7.70
2019-05-19T13:25:07.071Z,7.80
2019-05-19T13:27:36.545Z,9.97
2019-05-19T13:30:07.009Z,7.17
2019-05-19T13:32:36.495Z,6.67
2019-05-19T13:35:06.547Z,6.80
2019-05-19T13:37:36.041Z,6.43
2019-05-19T13:40:05.820Z,6.33
2019-05-19T13:42:35.225Z,5.70
2019-05-19T13:45:06.072Z,5.97
2019-05-19T13:47:35.521Z,5.60
2019-05-19T13:50:06.285Z,7.03
2019-05-19T13:52:35.750Z,5.73
2019-05-19T13:55:05.922Z,5.73
2019-05-19T13:57:35.395Z,6.30
2019-05-19T14:00:05.300Z,5.87
2019-05-19T14:02:36.221Z,6.13
2019-05-19T14:05:05.770Z,6.37
2019-05-19T14:07:35.222Z,8.43
2019-05-19T14:10:06.286Z,8.20
2019-05-19T14:12:36.094Z,7.87
2019-05-19T14:15:06.044Z,7.60
2019-05-19T14:17:35.504Z,9.70
2019-05-19T14:20:08.200Z,9.53
2019-05-19T14:22:37.797Z,8.07
2019-05-19T14:25:07.340Z,7.67
2019-05-19T14:27:36.763Z,7.13
2019-05-19T14:30:06.679Z,6.90
2019-05-19T14:32:36.206Z,7.17
2019-05-19T14:35:06.766Z,6.33
2019-05-19T14:37:36.145Z,6.80
2019-05-19T14:40:06.767Z,6.47
2019-05-19T14:42:43.960Z,6.80
2019-05-19T14:45:13.794Z,6.60
2019-05-19T14:47:43.278Z,6.10
2019-05-19T14:50:12.831Z,6.08
2019-05-19T14:52:42.362Z,7.00
2019-05-19T14:55:11.900Z,6.37
2019-05-19T14:57:44.802Z,7.00
2019-05-19T15:00:13.942Z,5.87
2019-05-19T15:02:43.353Z,8.00
2019-05-19T15:05:12.874Z,5.63
2019-05-19T15:07:42.406Z,5.83
2019-05-19T15:10:13.582Z,6.20
2019-05-19T15:12:44.069Z,6.30
2019-05-19T15:15:13.616Z,5.97
2019-05-19T15:17:43.098Z,6.70
2019-05-19T15:20:12.895Z,6.33
2019-05-19T15:22:42.328Z,6.87
2019-05-19T15:25:11.870Z,8.67
2019-05-19T15:27:41.282Z,8.23
2019-05-19T15:30:13.381Z,7.10
2019-05-19T15:32:42.001Z,10.67
2019-05-19T15:35:11.576Z,9.07
2019-05-19T15:37:40.987Z,8.03
2019-05-19T15:40:10.641Z,7.73
2019-05-19T15:42:40.021Z,8.93
2019-05-19T15:45:09.891Z,7.50
2019-05-19T15:47:39.347Z,15.60
2019-05-19T15:50:09.059Z,11.40
2019-05-19T15:52:38.569Z,11.57
2019-05-19T15:55:08.027Z,10.67
2019-05-19T15:57:37.456Z,9.77
2019-05-19T16:00:07.183Z,10.37
2019-05-19T16:02:37.819Z,9.13
2019-05-19T16:05:08.070Z,10.43
2019-05-19T16:07:37.470Z,8.98
2019-05-19T16:10:07.829Z,7.75
2019-05-19T16:12:38.697Z,7.40
2019-05-19T16:15:09.136Z,7.47
2019-05-19T16:17:38.619Z,11.37
2019-05-19T16:20:08.629Z,7.43
2019-05-19T16:22:38.097Z,8.17
2019-05-19T16:25:07.744Z,7.30
2019-05-19T16:27:37.238Z,8.23
2019-05-19T16:30:07.598Z,8.68
2019-05-19T16:32:38.185Z,7.20
2019-05-19T16:35:07.817Z,5.80
2019-05-19T16:37:37.466Z,6.60
2019-05-19T16:40:06.946Z,7.20
2019-05-19T16:42:36.414Z,7.13
2019-05-19T16:45:07.271Z,6.97
2019-05-19T16:47:36.765Z,12.07
2019-05-19T16:50:07.333Z,7.37
2019-05-19T16:52:37.980Z,6.30
2019-05-19T16:55:27.282Z,6.00
2019-05-19T16:57:56.748Z,6.37
2019-05-19T17:00:27.596Z,6.47
2019-05-19T17:02:57.114Z,6.80
2019-05-19T17:05:26.538Z,4.70
2019-05-19T17:07:56.237Z,5.00
2019-05-19T17:10:25.888Z,5.47
2019-05-19T17:12:55.331Z,8.03
2019-05-19T17:15:24.891Z,4.93
2019-05-19T17:17:54.407Z,4.80
2019-05-19T17:20:23.949Z,5.10
2019-05-19T17:22:54.524Z,2.70
2019-05-19T17:25:24.077Z,2.87
2019-05-19T17:27:53.468Z,2.97
2019-05-19T17:30:23.067Z,2.73
2019-05-19T17:32:52.550Z,2.73
2019-05-19T17:35:22.078Z,2.87
2019-05-19T17:37:51.515Z,3.33
2019-05-19T17:40:21.056Z,3.40
2019-05-19T17:42:50.529Z,2.43
2019-05-19T17:45:20.074Z,3.47
2019-05-19T17:47:49.477Z,4.70
2019-05-19T17:50:20.481Z,5.00
2019-05-19T17:52:49.965Z,5.23
2019-05-19T17:55:19.496Z,6.30
2019-05-19T17:57:49.120Z,5.77
2019-05-19T18:00:20.164Z,4.30
2019-05-19T18:02:49.658Z,5.00
2019-05-19T18:05:19.077Z,4.60
2019-05-19T18:07:48.591Z,4.13
2019-05-19T18:10:18.213Z,6.33
2019-05-19T18:12:47.684Z,4.83
2019-05-19T18:15:17.316Z,4.77
2019-05-19T18:17:46.770Z,5.20
2019-05-19T18:20:23.680Z,7.00
2019-05-19T18:22:47.448Z,5.20
2019-05-19T18:25:16.935Z,7.23
2019-05-19T18:27:46.481Z,5.83
2019-05-19T18:30:16.308Z,5.70
2019-05-19T18:32:45.865Z,6.37
2019-05-19T18:35:15.432Z,8.53
2019-05-19T18:37:44.959Z,7.93
2019-05-19T18:40:14.546Z,7.30
2019-05-19T18:42:44.102Z,8.60
2019-05-19T18:45:13.789Z,9.80
2019-05-19T18:47:43.222Z,6.30
2019-05-19T18:50:12.927Z,7.70
2019-05-19T18:52:42.434Z,8.13
2019-05-19T18:55:11.933Z,6.90
2019-05-19T18:57:41.473Z,7.90
2019-05-19T19:00:12.046Z,7.60
2019-05-19T19:02:41.571Z,8.97
2019-05-19T19:05:11.097Z,6.10
2019-05-19T19:07:48.154Z,5.20
2019-05-19T19:10:17.727Z,6.03
2019-05-19T19:12:47.662Z,5.73
2019-05-19T19:15:18.314Z,5.53
2019-05-19T19:17:47.733Z,4.20
2019-05-19T19:20:17.408Z,4.90
2019-05-19T19:22:46.906Z,4.37
2019-05-19T19:25:16.387Z,4.77
2019-05-19T19:27:45.968Z,5.00
2019-05-19T19:30:15.683Z,5.27
2019-05-19T19:32:45.152Z,4.40
2019-05-19T19:35:16.308Z,4.27
2019-05-19T19:37:45.883Z,3.60
2019-05-19T19:40:16.915Z,3.60
2019-05-19T19:42:46.713Z,2.90
2019-05-19T19:45:16.483Z,4.67
2019-05-19T19:47:46.189Z,4.50
2019-05-19T19:50:15.887Z,6.87
2019-05-19T19:52:45.641Z,6.63
2019-05-19T19:55:16.252Z,3.27
2019-05-19T19:57:45.669Z,7.23
2019-05-19T20:00:18.706Z,4.90
2019-05-19T20:02:47.738Z,8.25
2019-05-19T20:05:17.292Z,9.27
2019-05-19T20:07:46.694Z,7.10
2019-05-19T20:10:16.179Z,7.07
2019-05-19T20:12:45.680Z,8.40
2019-05-19T20:15:15.696Z,8.60
2019-05-19T20:17:45.119Z,9.60
2019-05-19T20:20:14.768Z,10.27
2019-05-19T20:22:44.177Z,10.13
2019-05-19T20:25:14.025Z,6.57
2019-05-19T20:27:43.541Z,7.72
2019-05-19T20:30:13.170Z,5.83
2019-05-19T20:32:42.634Z,6.47
2019-05-19T20:35:12.187Z,9.03
2019-05-19T20:37:42.867Z,9.00
2019-05-19T20:40:13.881Z,9.87
2019-05-19T20:42:43.342Z,8.93
2019-05-19T20:45:13.148Z,8.87
2019-05-19T20:47:42.602Z,11.27
2019-05-19T20:50:12.076Z,10.10
2019-05-19T20:52:42.830Z,8.40
2019-05-19T20:55:12.366Z,8.37
2019-05-19T20:57:41.858Z,8.73
2019-05-19T21:00:11.515Z,9.97
2019-05-19T21:02:41.010Z,10.97
2019-05-19T21:05:10.623Z,12.53
2019-05-19T21:07:40.100Z,11.80
2019-05-19T21:10:09.604Z,15.13
2019-05-19T21:12:39.117Z,21.90
2019-05-19T21:15:10.056Z,17.53
2019-05-19T21:17:39.578Z,21.33
2019-05-19T21:20:09.097Z,20.40
2019-05-19T21:22:38.708Z,19.80
2019-05-19T21:25:08.383Z,20.00
2019-05-19T21:27:37.886Z,21.33
2019-05-19T21:30:08.588Z,22.27
2019-05-19T21:32:38.066Z,20.93
2019-05-19T21:35:07.617Z,22.97
2019-05-19T21:37:37.258Z,17.10
2019-05-19T21:40:06.741Z,19.53
2019-05-19T21:42:36.158Z,19.07
2019-05-19T21:45:06.637Z,20.33
2019-05-19T21:47:36.332Z,18.87
2019-05-19T21:50:07.458Z,19.17
2019-05-19T21:52:36.942Z,20.90
2019-05-19T21:55:07.526Z,27.40
2019-05-19T21:57:36.992Z,26.13
2019-05-19T22:00:08.043Z,25.63
2019-05-19T22:02:39.196Z,25.17
2019-05-19T22:05:09.745Z,24.30
2019-05-19T22:07:46.851Z,28.07
2019-05-19T22:10:16.407Z,29.07
2019-05-19T22:12:45.862Z,33.13
2019-05-19T22:15:15.298Z,27.73
2019-05-19T22:17:44.807Z,32.43
2019-05-19T22:20:14.357Z,24.27
2019-05-19T22:22:43.834Z,27.63
2019-05-19T22:25:13.331Z,29.10
2019-05-19T22:27:42.834Z,28.97
2019-05-19T22:30:13.568Z,33.43
2019-05-19T22:32:43.103Z,36.63
2019-05-19T22:35:13.202Z,35.00
2019-05-19T22:37:42.697Z,37.33
2019-05-19T22:40:12.190Z,36.63
2019-05-19T22:42:41.766Z,33.70
2019-05-19T22:45:12.478Z,39.20
2019-05-19T22:47:41.889Z,37.00
2019-05-19T22:50:11.469Z,38.13
2019-05-19T22:52:41.005Z,48.17
2019-05-19T22:55:10.542Z,50.27
2019-05-19T22:57:41.143Z,50.07
2019-05-19T23:00:11.103Z,54.80
2019-05-19T23:02:42.174Z,56.77
2019-05-19T23:05:11.791Z,60.13
2019-05-19T23:07:42.270Z,58.83
2019-05-19T23:10:11.825Z,59.57
2019-05-19T23:12:41.233Z,58.80
2019-05-19T23:15:10.737Z,56.67
2019-05-19T23:17:41.701Z,58.50
2019-05-19T23:20:11.371Z,53.67
2019-05-19T23:22:40.786Z,47.87
2019-05-19T23:25:10.345Z,50.93
2019-05-19T23:27:39.858Z,48.73
2019-05-19T23:30:09.808Z,46.07
2019-05-19T23:32:39.227Z,49.20
2019-05-19T23:35:08.813Z,46.27
2019-05-19T23:37:38.310Z,42.57
2019-05-19T23:40:08.970Z,49.53
2019-05-19T23:42:38.497Z,43.93
2019-05-19T23:45:09.023Z,44.30
2019-05-19T23:47:38.453Z,42.07
2019-05-19T23:50:07.978Z,44.17
2019-05-19T23:52:37.414Z,45.63
2019-05-19T23:55:07.112Z,44.23
2019-05-19T23:57:36.545Z,40.93
